sensor_id;sensor_type;location;lat;lon;timestamp;P1;durP1;ratioP1;P2;durP2;ratioP2
9898;SDS011;4988;49.238;6.698;2023-11-21T00:01:53;7.77;;;4.63;;
9898;SDS011;4988;49.238;6.698;2023-11-21T00:04:19;6.43;;;4.07;;
9898;SDS011;4988;49.238;6.698;2023-11-21T00:06:44;7.57;;;4.33;;
9898;SDS011;4988;49.238;6.698;2023-11-21T00:09:12;7.60;;;4.13;;
9898;SDS011;4988;49.238;6.698;2023-11-21T00:11:38;10.43;;;4.97;;
9898;SDS011;4988;49.238;6.698;2023-11-21T00:14:03;14.40;;;4.37;;
9898;SDS011;4988;49.238;6.698;2023-11-21T00:16:29;7.83;;;4.43;;
9898;SDS011;4988;49.238;6.698;2023-11-21T00:18:54;10.10;;;4.37;;
9898;SDS011;4988;49.238;6.698;2023-11-21T00:21:19;9.60;;;4.80;;
9898;SDS011;4988;49.238;6.698;2023-11-21T00:23:45;8.20;;;4.37;;
9898;SDS011;4988;49.238;6.698;2023-11-21T00:26:10;9.17;;;4.83;;
9898;SDS011;4988;49.238;6.698;2023-11-21T00:28:36;9.00;;;5.33;;
9898;SDS011;4988;49.238;6.698;2023-11-21T00:31:01;10.23;;;5.20;;
9898;SDS011;4988;49.238;6.698;2023-11-21T00:33:26;7.47;;;4.63;;
9898;SDS011;4988;49.238;6.698;2023-11-21T00:35:52;12.03;;;4.57;;
9898;SDS011;4988;49.238;6.698;2023-11-21T00:38:17;8.27;;;4.37;;
9898;SDS011;4988;49.238;6.698;2023-11-21T00:40:45;14.33;;;5.20;;
9898;SDS011;4988;49.238;6.698;2023-11-21T00:43:11;12.67;;;5.93;;
9898;SDS011;4988;49.238;6.698;2023-11-21T00:45:36;16.13;;;5.67;;
9898;SDS011;4988;49.238;6.698;2023-11-21T00:48:02;11.63;;;5.70;;
9898;SDS011;4988;49.238;6.698;2023-11-21T00:50:29;6.90;;;4.60;;
9898;SDS011;4988;49.238;6.698;2023-11-21T00:52:55;11.13;;;5.37;;
9898;SDS011;4988;49.238;6.698;2023-11-21T00:55:20;11.37;;;5.10;;
9898;SDS011;4988;49.238;6.698;2023-11-21T00:57:46;10.90;;;5.20;;
9898;SDS011;4988;49.238;6.698;2023-11-21T01:00:11;12.13;;;6.17;;
9898;SDS011;4988;49.238;6.698;2023-11-21T01:02:41;13.33;;;6.27;;
9898;SDS011;4988;49.238;6.698;2023-11-21T01:05:08;11.17;;;6.27;;
9898;SDS011;4988;49.238;6.698;2023-11-21T01:07:33;15.60;;;6.40;;
9898;SDS011;4988;49.238;6.698;2023-11-21T01:09:59;12.73;;;6.60;;
9898;SDS011;4988;49.238;6.698;2023-11-21T01:12:24;15.17;;;6.90;;
9898;SDS011;4988;49.238;6.698;2023-11-21T01:14:50;15.90;;;7.63;;
9898;SDS011;4988;49.238;6.698;2023-11-21T01:17:15;12.97;;;6.90;;
9898;SDS011;4988;49.238;6.698;2023-11-21T01:19:41;13.50;;;6.47;;
9898;SDS011;4988;49.238;6.698;2023-11-21T01:22:07;14.17;;;6.90;;
9898;SDS011;4988;49.238;6.698;2023-11-21T01:24:33;12.20;;;6.63;;
9898;SDS011;4988;49.238;6.698;2023-11-21T01:26:59;14.07;;;7.37;;
9898;SDS011;4988;49.238;6.698;2023-11-21T01:29:24;13.93;;;7.37;;
9898;SDS011;4988;49.238;6.698;2023-11-21T01:31:49;12.50;;;6.50;;
9898;SDS011;4988;49.238;6.698;2023-11-21T01:34:15;13.70;;;7.60;;
9898;SDS011;4988;49.238;6.698;2023-11-21T01:36:40;15.50;;;7.93;;
9898;SDS011;4988;49.238;6.698;2023-11-21T01:39:05;16.80;;;8.40;;
9898;SDS011;4988;49.238;6.698;2023-11-21T01:41:33;12.20;;;7.03;;
9898;SDS011;4988;49.238;6.698;2023-11-21T01:44:00;13.40;;;7.77;;
9898;SDS011;4988;49.238;6.698;2023-11-21T01:46:25;15.07;;;7.60;;
9898;SDS011;4988;49.238;6.698;2023-11-21T01:48:51;14.07;;;8.10;;
9898;SDS011;4988;49.238;6.698;2023-11-21T01:51:18;19.63;;;7.50;;
9898;SDS011;4988;49.238;6.698;2023-11-21T01:53:44;14.13;;;7.47;;
9898;SDS011;4988;49.238;6.698;2023-11-21T01:56:11;14.43;;;7.67;;
9898;SDS011;4988;49.238;6.698;2023-11-21T01:58:37;13.03;;;7.70;;
9898;SDS011;4988;49.238;6.698;2023-11-21T02:01:03;14.00;;;7.40;;
9898;SDS011;4988;49.238;6.698;2023-11-21T02:03:28;14.70;;;7.53;;
9898;SDS011;4988;49.238;6.698;2023-11-21T02:05:54;13.43;;;7.80;;
9898;SDS011;4988;49.238;6.698;2023-11-21T02:08:19;18.60;;;8.13;;
9898;SDS011;4988;49.238;6.698;2023-11-21T02:10:45;17.77;;;8.40;;
9898;SDS011;4988;49.238;6.698;2023-11-21T02:13:10;13.03;;;7.13;;
9898;SDS011;4988;49.238;6.698;2023-11-21T02:15:36;13.80;;;7.20;;
9898;SDS011;4988;49.238;6.698;2023-11-21T02:18:03;14.53;;;7.33;;
9898;SDS011;4988;49.238;6.698;2023-11-21T02:20:30;12.67;;;7.10;;
9898;SDS011;4988;49.238;6.698;2023-11-21T02:22:57;11.53;;;6.53;;
9898;SDS011;4988;49.238;6.698;2023-11-21T02:25:26;12.13;;;6.50;;
9898;SDS011;4988;49.238;6.698;2023-11-21T02:27:53;13.60;;;6.30;;
9898;SDS011;4988;49.238;6.698;2023-11-21T02:30:20;8.10;;;5.70;;
9898;SDS011;4988;49.238;6.698;2023-11-21T02:32:46;10.07;;;5.90;;
9898;SDS011;4988;49.238;6.698;2023-11-21T02:35:15;11.23;;;6.37;;
9898;SDS011;4988;49.238;6.698;2023-11-21T02:37:43;10.53;;;5.90;;
9898;SDS011;4988;49.238;6.698;2023-11-21T02:40:09;11.83;;;6.40;;
9898;SDS011;4988;49.238;6.698;2023-11-21T02:42:37;9.77;;;6.37;;
9898;SDS011;4988;49.238;6.698;2023-11-21T02:45:02;9.70;;;6.20;;
9898;SDS011;4988;49.238;6.698;2023-11-21T02:47:28;11.00;;;6.60;;
9898;SDS011;4988;49.238;6.698;2023-11-21T02:49:53;11.13;;;6.40;;
9898;SDS011;4988;49.238;6.698;2023-11-21T02:52:19;10.13;;;6.30;;
9898;SDS011;4988;49.238;6.698;2023-11-21T02:54:44;11.77;;;5.97;;
9898;SDS011;4988;49.238;6.698;2023-11-21T02:57:09;10.60;;;5.93;;
9898;SDS011;4988;49.238;6.698;2023-11-21T02:59:35;13.10;;;6.37;;
9898;SDS011;4988;49.238;6.698;2023-11-21T03:02:00;12.33;;;6.37;;
9898;SDS011;4988;49.238;6.698;2023-11-21T03:04:26;11.23;;;6.37;;
9898;SDS011;4988;49.238;6.698;2023-11-21T03:06:51;9.93;;;6.20;;
9898;SDS011;4988;49.238;6.698;2023-11-21T03:09:16;10.37;;;6.27;;
9898;SDS011;4988;49.238;6.698;2023-11-21T03:11:42;12.67;;;6.23;;
9898;SDS011;4988;49.238;6.698;2023-11-21T03:14:07;10.73;;;6.33;;
9898;SDS011;4988;49.238;6.698;2023-11-21T03:16:32;8.67;;;5.50;;
9898;SDS011;4988;49.238;6.698;2023-11-21T03:18:58;10.10;;;5.83;;
9898;SDS011;4988;49.238;6.698;2023-11-21T03:21:24;12.33;;;5.70;;
9898;SDS011;4988;49.238;6.698;2023-11-21T03:23:49;9.10;;;5.37;;
9898;SDS011;4988;49.238;6.698;2023-11-21T03:26:15;9.43;;;5.33;;
9898;SDS011;4988;49.238;6.698;2023-11-21T03:28:41;8.47;;;5.40;;
9898;SDS011;4988;49.238;6.698;2023-11-21T03:31:07;11.83;;;6.27;;
9898;SDS011;4988;49.238;6.698;2023-11-21T03:33:33;9.57;;;5.10;;
9898;SDS011;4988;49.238;6.698;2023-11-21T03:36:00;11.87;;;5.20;;
9898;SDS011;4988;49.238;6.698;2023-11-21T03:38:25;9.93;;;5.67;;
9898;SDS011;4988;49.238;6.698;2023-11-21T03:40:51;8.23;;;5.40;;
9898;SDS011;4988;49.238;6.698;2023-11-21T03:43:16;7.97;;;4.97;;
9898;SDS011;4988;49.238;6.698;2023-11-21T03:45:41;6.67;;;4.73;;
9898;SDS011;4988;49.238;6.698;2023-11-21T03:48:07;7.23;;;4.97;;
9898;SDS011;4988;49.238;6.698;2023-11-21T03:50:32;7.03;;;4.40;;
9898;SDS011;4988;49.238;6.698;2023-11-21T03:52:58;10.77;;;5.03;;
9898;SDS011;4988;49.238;6.698;2023-11-21T03:55:23;8.17;;;5.10;;
9898;SDS011;4988;49.238;6.698;2023-11-21T03:57:50;10.67;;;5.83;;
9898;SDS011;4988;49.238;6.698;2023-11-21T04:00:16;9.13;;;5.10;;
9898;SDS011;4988;49.238;6.698;2023-11-21T04:02:42;9.57;;;5.50;;
9898;SDS011;4988;49.238;6.698;2023-11-21T04:05:07;8.80;;;5.30;;
9898;SDS011;4988;49.238;6.698;2023-11-21T04:07:34;7.70;;;4.80;;
9898;SDS011;4988;49.238;6.698;2023-11-21T04:09:59;8.00;;;4.70;;
9898;SDS011;4988;49.238;6.698;2023-11-21T04:12:25;9.53;;;4.63;;
9898;SDS011;4988;49.238;6.698;2023-11-21T04:14:50;7.30;;;4.40;;
9898;SDS011;4988;49.238;6.698;2023-11-21T04:17:17;6.47;;;4.53;;
9898;SDS011;4988;49.238;6.698;2023-11-21T04:19:43;9.00;;;4.40;;
9898;SDS011;4988;49.238;6.698;2023-11-21T04:22:08;6.43;;;4.30;;
9898;SDS011;4988;49.238;6.698;2023-11-21T04:24:34;6.23;;;4.23;;
9898;SDS011;4988;49.238;6.698;2023-11-21T04:26:59;8.97;;;4.97;;
9898;SDS011;4988;49.238;6.698;2023-11-21T04:29:24;6.13;;;4.33;;
9898;SDS011;4988;49.238;6.698;2023-11-21T04:31:50;7.03;;;4.60;;
9898;SDS011;4988;49.238;6.698;2023-11-21T04:34:15;7.37;;;4.27;;
9898;SDS011;4988;49.238;6.698;2023-11-21T04:36:40;8.63;;;4.53;;
9898;SDS011;4988;49.238;6.698;2023-11-21T04:39:06;6.97;;;4.43;;
9898;SDS011;4988;49.238;6.698;2023-11-21T04:41:32;7.67;;;3.90;;
9898;SDS011;4988;49.238;6.698;2023-11-21T04:43:57;6.87;;;4.43;;
9898;SDS011;4988;49.238;6.698;2023-11-21T04:46:23;8.03;;;4.00;;
9898;SDS011;4988;49.238;6.698;2023-11-21T04:48:49;6.10;;;4.10;;
9898;SDS011;4988;49.238;6.698;2023-11-21T04:51:14;5.03;;;4.17;;
9898;SDS011;4988;49.238;6.698;2023-11-21T04:53:39;5.50;;;3.70;;
9898;SDS011;4988;49.238;6.698;2023-11-21T04:56:05;4.87;;;3.40;;
9898;SDS011;4988;49.238;6.698;2023-11-21T04:58:30;5.90;;;3.27;;
9898;SDS011;4988;49.238;6.698;2023-11-21T05:00:57;5.37;;;3.50;;
9898;SDS011;4988;49.238;6.698;2023-11-21T05:03:22;6.13;;;3.50;;
9898;SDS011;4988;49.238;6.698;2023-11-21T05:05:48;5.13;;;3.63;;
9898;SDS011;4988;49.238;6.698;2023-11-21T05:08:14;5.90;;;3.47;;
9898;SDS011;4988;49.238;6.698;2023-11-21T05:10:39;4.60;;;3.30;;
9898;SDS011;4988;49.238;6.698;2023-11-21T05:13:04;4.13;;;3.20;;
9898;SDS011;4988;49.238;6.698;2023-11-21T05:15:34;16.97;;;4.63;;
9898;SDS011;4988;49.238;6.698;2023-11-21T05:18:00;7.57;;;3.60;;
9898;SDS011;4988;49.238;6.698;2023-11-21T05:20:25;6.37;;;3.70;;
9898;SDS011;4988;49.238;6.698;2023-11-21T05:22:50;4.83;;;3.40;;
9898;SDS011;4988;49.238;6.698;2023-11-21T05:25:17;4.70;;;3.30;;
9898;SDS011;4988;49.238;6.698;2023-11-21T05:27:43;5.90;;;3.40;;
9898;SDS011;4988;49.238;6.698;2023-11-21T05:30:09;4.63;;;3.37;;
9898;SDS011;4988;49.238;6.698;2023-11-21T05:32:37;6.37;;;3.07;;
9898;SDS011;4988;49.238;6.698;2023-11-21T05:35:03;4.53;;;3.20;;
9898;SDS011;4988;49.238;6.698;2023-11-21T05:37:28;3.10;;;2.80;;
9898;SDS011;4988;49.238;6.698;2023-11-21T05:39:54;4.20;;;3.20;;
9898;SDS011;4988;49.238;6.698;2023-11-21T05:42:23;4.27;;;3.20;;
9898;SDS011;4988;49.238;6.698;2023-11-21T05:44:48;4.10;;;3.07;;
9898;SDS011;4988;49.238;6.698;2023-11-21T05:47:14;5.20;;;3.33;;
9898;SDS011;4988;49.238;6.698;2023-11-21T05:49:39;5.00;;;3.37;;
9898;SDS011;4988;49.238;6.698;2023-11-21T05:52:05;6.30;;;3.70;;
9898;SDS011;4988;49.238;6.698;2023-11-21T05:54:30;5.63;;;3.77;;
9898;SDS011;4988;49.238;6.698;2023-11-21T05:56:56;7.73;;;4.23;;
9898;SDS011;4988;49.238;6.698;2023-11-21T05:59:21;7.13;;;4.43;;
9898;SDS011;4988;49.238;6.698;2023-11-21T06:01:47;11.43;;;4.63;;
9898;SDS011;4988;49.238;6.698;2023-11-21T06:04:12;7.93;;;4.33;;
9898;SDS011;4988;49.238;6.698;2023-11-21T06:06:38;8.23;;;5.10;;
9898;SDS011;4988;49.238;6.698;2023-11-21T06:09:04;8.73;;;4.50;;
9898;SDS011;4988;49.238;6.698;2023-11-21T06:11:30;9.47;;;6.00;;
9898;SDS011;4988;49.238;6.698;2023-11-21T06:13:56;10.73;;;4.97;;
9898;SDS011;4988;49.238;6.698;2023-11-21T06:16:21;9.67;;;4.90;;
9898;SDS011;4988;49.238;6.698;2023-11-21T06:18:47;7.03;;;4.97;;
9898;SDS011;4988;49.238;6.698;2023-11-21T06:21:12;8.97;;;4.73;;
9898;SDS011;4988;49.238;6.698;2023-11-21T06:23:38;9.40;;;5.07;;
9898;SDS011;4988;49.238;6.698;2023-11-21T06:26:04;9.43;;;5.23;;
9898;SDS011;4988;49.238;6.698;2023-11-21T06:28:30;8.20;;;5.03;;
9898;SDS011;4988;49.238;6.698;2023-11-21T06:30:56;10.53;;;4.90;;
9898;SDS011;4988;49.238;6.698;2023-11-21T06:33:23;8.80;;;4.73;;
9898;SDS011;4988;49.238;6.698;2023-11-21T06:35:48;9.13;;;5.50;;
9898;SDS011;4988;49.238;6.698;2023-11-21T06:38:14;8.30;;;4.90;;
9898;SDS011;4988;49.238;6.698;2023-11-21T06:40:40;8.73;;;4.80;;
9898;SDS011;4988;49.238;6.698;2023-11-21T06:43:05;8.77;;;4.70;;
9898;SDS011;4988;49.238;6.698;2023-11-21T06:45:32;9.20;;;5.03;;
9898;SDS011;4988;49.238;6.698;2023-11-21T06:47:59;8.00;;;4.60;;
9898;SDS011;4988;49.238;6.698;2023-11-21T06:50:24;9.93;;;4.70;;
9898;SDS011;4988;49.238;6.698;2023-11-21T06:52:49;9.70;;;5.03;;
9898;SDS011;4988;49.238;6.698;2023-11-21T06:55:15;9.57;;;5.60;;
9898;SDS011;4988;49.238;6.698;2023-11-21T06:57:41;10.60;;;5.80;;
9898;SDS011;4988;49.238;6.698;2023-11-21T07:00:06;10.90;;;5.70;;
9898;SDS011;4988;49.238;6.698;2023-11-21T07:02:34;7.53;;;4.63;;
9898;SDS011;4988;49.238;6.698;2023-11-21T07:04:59;10.30;;;4.73;;
9898;SDS011;4988;49.238;6.698;2023-11-21T07:07:25;9.57;;;4.90;;
9898;SDS011;4988;49.238;6.698;2023-11-21T07:09:50;8.07;;;4.90;;
9898;SDS011;4988;49.238;6.698;2023-11-21T07:12:17;8.23;;;4.23;;
9898;SDS011;4988;49.238;6.698;2023-11-21T07:14:42;9.50;;;5.03;;
9898;SDS011;4988;49.238;6.698;2023-11-21T07:17:09;10.37;;;5.17;;
9898;SDS011;4988;49.238;6.698;2023-11-21T07:19:38;11.30;;;6.70;;
9898;SDS011;4988;49.238;6.698;2023-11-21T07:22:03;13.90;;;6.10;;
9898;SDS011;4988;49.238;6.698;2023-11-21T07:24:30;8.93;;;5.63;;
9898;SDS011;4988;49.238;6.698;2023-11-21T07:26:57;12.80;;;6.60;;
9898;SDS011;4988;49.238;6.698;2023-11-21T07:29:25;13.27;;;6.97;;
9898;SDS011;4988;49.238;6.698;2023-11-21T07:31:51;11.50;;;6.20;;
9898;SDS011;4988;49.238;6.698;2023-11-21T07:34:20;10.03;;;5.43;;
9898;SDS011;4988;49.238;6.698;2023-11-21T07:36:46;11.57;;;5.93;;
9898;SDS011;4988;49.238;6.698;2023-11-21T07:39:11;10.20;;;5.30;;
9898;SDS011;4988;49.238;6.698;2023-11-21T07:41:36;10.40;;;4.90;;
9898;SDS011;4988;49.238;6.698;2023-11-21T07:44:03;10.73;;;6.73;;
9898;SDS011;4988;49.238;6.698;2023-11-21T07:46:28;22.07;;;11.00;;
9898;SDS011;4988;49.238;6.698;2023-11-21T07:48:54;14.23;;;6.37;;
9898;SDS011;4988;49.238;6.698;2023-11-21T07:51:20;8.27;;;5.00;;
9898;SDS011;4988;49.238;6.698;2023-11-21T07:53:45;8.73;;;5.30;;
9898;SDS011;4988;49.238;6.698;2023-11-21T07:56:10;11.30;;;5.87;;
9898;SDS011;4988;49.238;6.698;2023-11-21T07:58:36;9.50;;;5.67;;
9898;SDS011;4988;49.238;6.698;2023-11-21T08:01:02;10.93;;;6.10;;
9898;SDS011;4988;49.238;6.698;2023-11-21T08:03:28;8.50;;;5.37;;
9898;SDS011;4988;49.238;6.698;2023-11-21T08:05:57;10.23;;;5.20;;
9898;SDS011;4988;49.238;6.698;2023-11-21T08:08:23;11.50;;;4.77;;
9898;SDS011;4988;49.238;6.698;2023-11-21T08:10:49;11.60;;;5.63;;
9898;SDS011;4988;49.238;6.698;2023-11-21T08:13:21;9.03;;;4.60;;
9898;SDS011;4988;49.238;6.698;2023-11-21T08:15:47;10.17;;;5.40;;
9898;SDS011;4988;49.238;6.698;2023-11-21T08:18:13;7.80;;;4.63;;
9898;SDS011;4988;49.238;6.698;2023-11-21T08:20:39;5.70;;;4.00;;
9898;SDS011;4988;49.238;6.698;2023-11-21T08:23:05;10.87;;;4.83;;
9898;SDS011;4988;49.238;6.698;2023-11-21T08:25:31;7.37;;;4.90;;
9898;SDS011;4988;49.238;6.698;2023-11-21T08:27:57;6.63;;;4.40;;
9898;SDS011;4988;49.238;6.698;2023-11-21T08:30:23;6.20;;;4.10;;
9898;SDS011;4988;49.238;6.698;2023-11-21T08:32:49;9.83;;;4.20;;
9898;SDS011;4988;49.238;6.698;2023-11-21T08:35:18;6.63;;;4.40;;
9898;SDS011;4988;49.238;6.698;2023-11-21T08:37:44;7.50;;;5.07;;
9898;SDS011;4988;49.238;6.698;2023-11-21T08:40:10;9.43;;;4.03;;
9898;SDS011;4988;49.238;6.698;2023-11-21T08:42:37;7.13;;;4.10;;
9898;SDS011;4988;49.238;6.698;2023-11-21T08:45:02;11.13;;;4.80;;
9898;SDS011;4988;49.238;6.698;2023-11-21T08:47:28;7.63;;;4.27;;
9898;SDS011;4988;49.238;6.698;2023-11-21T08:49:54;7.80;;;4.37;;
9898;SDS011;4988;49.238;6.698;2023-11-21T08:52:19;10.07;;;5.57;;
9898;SDS011;4988;49.238;6.698;2023-11-21T08:54:48;8.27;;;4.90;;
9898;SDS011;4988;49.238;6.698;2023-11-21T08:57:21;7.53;;;4.80;;
9898;SDS011;4988;49.238;6.698;2023-11-21T08:59:47;7.10;;;5.00;;
9898;SDS011;4988;49.238;6.698;2023-11-21T09:02:12;8.70;;;4.93;;
9898;SDS011;4988;49.238;6.698;2023-11-21T09:04:37;7.10;;;4.30;;
9898;SDS011;4988;49.238;6.698;2023-11-21T09:07:03;8.70;;;5.10;;
9898;SDS011;4988;49.238;6.698;2023-11-21T09:09:28;12.97;;;4.93;;
9898;SDS011;4988;49.238;6.698;2023-11-21T09:11:54;9.33;;;4.90;;
9898;SDS011;4988;49.238;6.698;2023-11-21T09:14:20;12.83;;;5.17;;
9898;SDS011;4988;49.238;6.698;2023-11-21T09:16:45;8.50;;;4.67;;
9898;SDS011;4988;49.238;6.698;2023-11-21T09:19:10;12.33;;;5.03;;
9898;SDS011;4988;49.238;6.698;2023-11-21T09:21:36;10.53;;;5.53;;
9898;SDS011;4988;49.238;6.698;2023-11-21T09:24:02;10.00;;;5.27;;
9898;SDS011;4988;49.238;6.698;2023-11-21T09:26:28;7.63;;;4.50;;
9898;SDS011;4988;49.238;6.698;2023-11-21T09:28:55;9.17;;;4.60;;
9898;SDS011;4988;49.238;6.698;2023-11-21T09:31:21;7.97;;;5.10;;
9898;SDS011;4988;49.238;6.698;2023-11-21T09:33:47;12.07;;;5.57;;
9898;SDS011;4988;49.238;6.698;2023-11-21T09:36:13;10.23;;;5.30;;
9898;SDS011;4988;49.238;6.698;2023-11-21T09:38:39;10.10;;;5.40;;
9898;SDS011;4988;49.238;6.698;2023-11-21T09:41:06;9.63;;;5.50;;
9898;SDS011;4988;49.238;6.698;2023-11-21T09:43:42;8.13;;;5.10;;
9898;SDS011;4988;49.238;6.698;2023-11-21T09:46:11;10.27;;;4.67;;
9898;SDS011;4988;49.238;6.698;2023-11-21T09:48:44;10.30;;;4.97;;
9898;SDS011;4988;49.238;6.698;2023-11-21T09:51:11;9.40;;;5.20;;
9898;SDS011;4988;49.238;6.698;2023-11-21T09:53:37;14.77;;;5.10;;
9898;SDS011;4988;49.238;6.698;2023-11-21T09:56:04;10.57;;;5.63;;
9898;SDS011;4988;49.238;6.698;2023-11-21T09:58:30;8.70;;;5.33;;
9898;SDS011;4988;49.238;6.698;2023-11-21T10:00:58;9.97;;;5.43;;
9898;SDS011;4988;49.238;6.698;2023-11-21T10:03:24;10.53;;;5.60;;
9898;SDS011;4988;49.238;6.698;2023-11-21T10:05:50;10.17;;;5.00;;
9898;SDS011;4988;49.238;6.698;2023-11-21T10:08:16;12.60;;;5.70;;
9898;SDS011;4988;49.238;6.698;2023-11-21T10:10:45;8.97;;;5.10;;
9898;SDS011;4988;49.238;6.698;2023-11-21T10:13:15;8.43;;;5.30;;
9898;SDS011;4988;49.238;6.698;2023-11-21T10:15:44;14.70;;;6.80;;
9898;SDS011;4988;49.238;6.698;2023-11-21T10:18:15;7.27;;;5.00;;
9898;SDS011;4988;49.238;6.698;2023-11-21T10:20:41;7.43;;;4.90;;
9898;SDS011;4988;49.238;6.698;2023-11-21T10:23:07;6.57;;;4.30;;
9898;SDS011;4988;49.238;6.698;2023-11-21T10:25:36;7.47;;;4.97;;
9898;SDS011;4988;49.238;6.698;2023-11-21T10:28:02;8.37;;;4.60;;
9898;SDS011;4988;49.238;6.698;2023-11-21T10:30:32;9.97;;;5.10;;
9898;SDS011;4988;49.238;6.698;2023-11-21T10:33:02;9.13;;;4.70;;
9898;SDS011;4988;49.238;6.698;2023-11-21T10:35:47;7.83;;;4.60;;
9898;SDS011;4988;49.238;6.698;2023-11-21T10:38:19;7.07;;;4.53;;
9898;SDS011;4988;49.238;6.698;2023-11-21T10:40:47;6.83;;;4.80;;
9898;SDS011;4988;49.238;6.698;2023-11-21T10:43:14;7.37;;;4.43;;
9898;SDS011;4988;49.238;6.698;2023-11-21T10:45:42;6.83;;;4.60;;
9898;SDS011;4988;49.238;6.698;2023-11-21T10:48:14;5.77;;;4.40;;
9898;SDS011;4988;49.238;6.698;2023-11-21T10:50:40;8.07;;;4.57;;
9898;SDS011;4988;49.238;6.698;2023-11-21T10:53:06;7.63;;;4.57;;
9898;SDS011;4988;49.238;6.698;2023-11-21T10:55:33;6.27;;;4.40;;
9898;SDS011;4988;49.238;6.698;2023-11-21T10:58:00;8.13;;;4.87;;
9898;SDS011;4988;49.238;6.698;2023-11-21T11:00:28;7.23;;;4.40;;
9898;SDS011;4988;49.238;6.698;2023-11-21T11:02:54;13.20;;;6.97;;
9898;SDS011;4988;49.238;6.698;2023-11-21T11:05:21;12.97;;;7.13;;
9898;SDS011;4988;49.238;6.698;2023-11-21T11:07:50;11.57;;;5.80;;
9898;SDS011;4988;49.238;6.698;2023-11-21T11:10:24;7.83;;;5.77;;
9898;SDS011;4988;49.238;6.698;2023-11-21T11:12:52;7.67;;;5.17;;
9898;SDS011;4988;49.238;6.698;2023-11-21T11:15:19;6.03;;;4.77;;
9898;SDS011;4988;49.238;6.698;2023-11-21T11:17:45;9.97;;;5.80;;
9898;SDS011;4988;49.238;6.698;2023-11-21T11:20:12;11.83;;;5.93;;
9898;SDS011;4988;49.238;6.698;2023-11-21T11:22:59;7.07;;;4.37;;
9898;SDS011;4988;49.238;6.698;2023-11-21T11:31:53;10.73;;;6.23;;
9898;SDS011;4988;49.238;6.698;2023-11-21T11:34:30;18.37;;;8.63;;
9898;SDS011;4988;49.238;6.698;2023-11-21T11:39:28;9.93;;;5.20;;
9898;SDS011;4988;49.238;6.698;2023-11-21T11:41:57;8.70;;;4.60;;
9898;SDS011;4988;49.238;6.698;2023-11-21T11:49:56;7.77;;;4.73;;
9898;SDS011;4988;49.238;6.698;2023-11-21T11:55:17;8.77;;;4.30;;
9898;SDS011;4988;49.238;6.698;2023-11-21T11:57:44;7.10;;;4.30;;
9898;SDS011;4988;49.238;6.698;2023-11-21T12:00:12;7.17;;;4.60;;
9898;SDS011;4988;49.238;6.698;2023-11-21T12:02:47;7.00;;;4.50;;
9898;SDS011;4988;49.238;6.698;2023-11-21T12:05:14;8.60;;;4.37;;
9898;SDS011;4988;49.238;6.698;2023-11-21T12:07:50;12.27;;;5.70;;
9898;SDS011;4988;49.238;6.698;2023-11-21T12:10:24;8.03;;;4.40;;
9898;SDS011;4988;49.238;6.698;2023-11-21T12:12:51;7.80;;;4.97;;
9898;SDS011;4988;49.238;6.698;2023-11-21T12:15:18;9.53;;;5.20;;
9898;SDS011;4988;49.238;6.698;2023-11-21T12:17:44;8.17;;;4.53;;
9898;SDS011;4988;49.238;6.698;2023-11-21T12:20:11;9.20;;;4.93;;
9898;SDS011;4988;49.238;6.698;2023-11-21T12:22:50;6.80;;;4.10;;
9898;SDS011;4988;49.238;6.698;2023-11-21T12:25:16;7.97;;;4.40;;
9898;SDS011;4988;49.238;6.698;2023-11-21T12:27:47;7.67;;;4.80;;
9898;SDS011;4988;49.238;6.698;2023-11-21T12:30:14;8.80;;;4.47;;
9898;SDS011;4988;49.238;6.698;2023-11-21T12:32:42;8.77;;;4.70;;
9898;SDS011;4988;49.238;6.698;2023-11-21T12:35:09;7.17;;;4.30;;
9898;SDS011;4988;49.238;6.698;2023-11-21T12:37:36;8.40;;;4.80;;
9898;SDS011;4988;49.238;6.698;2023-11-21T12:40:04;9.03;;;5.30;;
9898;SDS011;4988;49.238;6.698;2023-11-21T12:42:30;7.30;;;5.10;;
9898;SDS011;4988;49.238;6.698;2023-11-21T12:45:10;7.83;;;4.60;;
9898;SDS011;4988;49.238;6.698;2023-11-21T12:47:42;9.03;;;5.00;;
9898;SDS011;4988;49.238;6.698;2023-11-21T12:50:09;9.27;;;5.53;;
9898;SDS011;4988;49.238;6.698;2023-11-21T12:52:43;6.90;;;4.57;;
9898;SDS011;4988;49.238;6.698;2023-11-21T12:55:13;6.67;;;4.47;;
9898;SDS011;4988;49.238;6.698;2023-11-21T12:57:41;6.73;;;5.00;;
9898;SDS011;4988;49.238;6.698;2023-11-21T13:00:08;9.03;;;5.43;;
9898;SDS011;4988;49.238;6.698;2023-11-21T13:02:38;7.83;;;4.90;;
9898;SDS011;4988;49.238;6.698;2023-11-21T13:05:07;8.07;;;4.83;;
9898;SDS011;4988;49.238;6.698;2023-11-21T13:07:41;7.10;;;4.73;;
9898;SDS011;4988;49.238;6.698;2023-11-21T13:10:11;10.23;;;4.93;;
9898;SDS011;4988;49.238;6.698;2023-11-21T13:12:44;7.87;;;4.70;;
9898;SDS011;4988;49.238;6.698;2023-11-21T13:15:16;9.90;;;5.23;;
9898;SDS011;4988;49.238;6.698;2023-11-21T13:17:45;7.63;;;4.80;;
9898;SDS011;4988;49.238;6.698;2023-11-21T13:20:10;8.77;;;5.07;;
9898;SDS011;4988;49.238;6.698;2023-11-21T13:22:50;7.97;;;5.20;;
9898;SDS011;4988;49.238;6.698;2023-11-21T13:25:20;9.97;;;5.93;;
9898;SDS011;4988;49.238;6.698;2023-11-21T13:27:46;8.87;;;4.93;;
9898;SDS011;4988;49.238;6.698;2023-11-21T13:30:13;9.93;;;5.97;;
9898;SDS011;4988;49.238;6.698;2023-11-21T13:32:42;8.20;;;5.20;;
9898;SDS011;4988;49.238;6.698;2023-11-21T13:35:11;9.07;;;5.50;;
9898;SDS011;4988;49.238;6.698;2023-11-21T13:37:46;10.17;;;5.30;;
9898;SDS011;4988;49.238;6.698;2023-11-21T13:40:15;10.40;;;5.07;;
9898;SDS011;4988;49.238;6.698;2023-11-21T13:42:44;6.93;;;4.63;;
9898;SDS011;4988;49.238;6.698;2023-11-21T13:45:10;7.07;;;4.77;;
9898;SDS011;4988;49.238;6.698;2023-11-21T13:47:37;7.40;;;4.70;;
9898;SDS011;4988;49.238;6.698;2023-11-21T13:50:03;9.47;;;4.50;;
9898;SDS011;4988;49.238;6.698;2023-11-21T13:52:31;7.67;;;4.47;;
9898;SDS011;4988;49.238;6.698;2023-11-21T13:54:58;11.63;;;4.73;;
9898;SDS011;4988;49.238;6.698;2023-11-21T13:57:26;9.30;;;4.90;;
9898;SDS011;4988;49.238;6.698;2023-11-21T13:59:52;9.00;;;4.67;;
9898;SDS011;4988;49.238;6.698;2023-11-21T14:02:17;10.27;;;5.00;;
9898;SDS011;4988;49.238;6.698;2023-11-21T14:04:43;8.70;;;4.97;;
9898;SDS011;4988;49.238;6.698;2023-11-21T14:07:20;9.70;;;5.13;;
9898;SDS011;4988;49.238;6.698;2023-11-21T14:10:06;8.07;;;5.07;;
9898;SDS011;4988;49.238;6.698;2023-11-21T14:12:39;12.23;;;5.30;;
9898;SDS011;4988;49.238;6.698;2023-11-21T14:15:06;7.80;;;5.33;;
9898;SDS011;4988;49.238;6.698;2023-11-21T14:17:36;7.90;;;5.27;;
9898;SDS011;4988;49.238;6.698;2023-11-21T14:20:04;13.90;;;7.23;;
9898;SDS011;4988;49.238;6.698;2023-11-21T14:22:30;10.90;;;5.73;;
9898;SDS011;4988;49.238;6.698;2023-11-21T14:24:56;11.10;;;6.03;;
9898;SDS011;4988;49.238;6.698;2023-11-21T14:27:24;11.53;;;5.10;;
9898;SDS011;4988;49.238;6.698;2023-11-21T14:29:50;11.27;;;5.83;;
9898;SDS011;4988;49.238;6.698;2023-11-21T14:32:15;7.73;;;5.30;;
9898;SDS011;4988;49.238;6.698;2023-11-21T14:34:41;10.57;;;5.87;;
9898;SDS011;4988;49.238;6.698;2023-11-21T14:37:10;9.97;;;5.53;;
9898;SDS011;4988;49.238;6.698;2023-11-21T14:39:38;10.60;;;6.30;;
9898;SDS011;4988;49.238;6.698;2023-11-21T14:42:09;7.73;;;4.83;;
9898;SDS011;4988;49.238;6.698;2023-11-21T14:44:34;8.40;;;5.10;;
9898;SDS011;4988;49.238;6.698;2023-11-21T14:47:03;12.13;;;6.07;;
9898;SDS011;4988;49.238;6.698;2023-11-21T14:49:32;9.17;;;5.37;;
9898;SDS011;4988;49.238;6.698;2023-11-21T14:52:10;8.13;;;5.40;;
9898;SDS011;4988;49.238;6.698;2023-11-21T14:54:55;9.73;;;5.87;;
9898;SDS011;4988;49.238;6.698;2023-11-21T14:57:41;11.57;;;6.57;;
9898;SDS011;4988;49.238;6.698;2023-11-21T15:00:08;10.97;;;6.10;;
9898;SDS011;4988;49.238;6.698;2023-11-21T15:02:54;11.03;;;7.33;;
9898;SDS011;4988;49.238;6.698;2023-11-21T15:05:19;9.27;;;5.33;;
9898;SDS011;4988;49.238;6.698;2023-11-21T15:07:45;8.03;;;5.53;;
9898;SDS011;4988;49.238;6.698;2023-11-21T15:10:11;6.00;;;4.27;;
9898;SDS011;4988;49.238;6.698;2023-11-21T15:12:40;7.23;;;4.93;;
9898;SDS011;4988;49.238;6.698;2023-11-21T15:15:08;7.23;;;5.27;;
9898;SDS011;4988;49.238;6.698;2023-11-21T15:17:35;7.80;;;4.90;;
9898;SDS011;4988;49.238;6.698;2023-11-21T15:20:01;8.70;;;4.97;;
9898;SDS011;4988;49.238;6.698;2023-11-21T15:22:28;9.07;;;4.73;;
9898;SDS011;4988;49.238;6.698;2023-11-21T15:24:53;8.17;;;5.13;;
9898;SDS011;4988;49.238;6.698;2023-11-21T15:27:19;9.70;;;4.97;;